Time;durP1;ratioP1;P1;durP2;ratioP2;P2;SDS_P1;SDS_P2;PMS_P1;PMS_P2;Temp;Humidity;BMP_temperature;BMP_pressure;BME280_temperature;BME280_humidity;BME280_pressure;Samples;Min_cycle;Max_cycle;Signal;HPM_P1;HPM_P2
2022/01/22 00:02:07;;;;;;;28.75;4.30;;;6.80;99.90;;;;;;5066736;28;20432;-77
2022/01/22 00:04:33;;;;;;;26.27;4.22;;;6.80;99.90;;;;;;5049439;28;20751;-77
2022/01/22 00:07:02;;;;;;;24.10;3.78;;;6.80;99.90;;;;;;5066484;28;20400;-77
2022/01/22 00:09:35;;;;;;;25.67;3.80;;;6.80;99.90;;;;;;5066371;28;20412;-77
2022/01/22 00:12:03;;;;;;;20.30;3.53;;;6.80;99.90;;;;;;5066280;28;20431;-78
2022/01/22 00:14:28;;;;;;;28.73;3.60;;;6.80;99.90;;;;;;5049779;28;20411;-77
2022/01/22 00:16:57;;;;;;;26.70;4.10;;;6.90;99.90;;;;;;5049658;28;20426;-78
2022/01/22 00:19:23;;;;;;;24.70;3.47;;;6.80;99.90;;;;;;5066531;28;20407;-77
2022/01/22 00:21:50;;;;;;;29.05;3.80;;;6.80;99.90;;;;;;5069605;28;20438;-77
2022/01/22 00:24:17;;;;;;;19.20;3.60;;;6.80;99.90;;;;;;5070230;28;20419;-77
2022/01/22 00:26:43;;;;;;;25.57;3.63;;;6.90;99.90;;;;;;5069052;28;20419;-77
2022/01/22 00:29:10;;;;;;;19.35;4.20;;;6.90;99.90;;;;;;5053042;28;20468;-77
2022/01/22 00:31:38;;;;;;;25.23;4.77;;;6.80;99.90;;;;;;5053282;28;20425;-77
2022/01/22 00:34:03;;;;;;;23.55;4.22;;;6.80;99.90;;;;;;5069692;28;20491;-77
2022/01/22 00:36:29;;;;;;;24.80;4.32;;;6.80;99.90;;;;;;5077583;28;20480;-77
2022/01/22 00:38:55;;;;;;;17.50;3.28;;;6.80;99.90;;;;;;5090287;28;20413;-77
2022/01/22 00:41:21;;;;;;;21.58;3.83;;;6.90;99.90;;;;;;5090034;28;20398;-77
2022/01/22 00:43:48;;;;;;;17.05;3.20;;;6.80;99.90;;;;;;5072898;28;20414;-77
2022/01/22 00:46:14;;;;;;;15.10;2.93;;;6.80;99.90;;;;;;5090121;28;20401;-77
2022/01/22 00:48:40;;;;;;;16.90;2.70;;;6.80;99.90;;;;;;5089849;28;20924;-77
2022/01/22 00:51:05;;;;;;;16.83;3.20;;;6.80;99.90;;;;;;5089887;28;20479;-77
2022/01/22 00:53:32;;;;;;;11.90;2.30;;;6.90;99.90;;;;;;5089573;28;20422;-77
2022/01/22 00:55:58;;;;;;;14.27;2.75;;;6.90;99.90;;;;;;5089405;28;20402;-78
2022/01/22 00:58:24;;;;;;;15.63;2.90;;;6.80;99.90;;;;;;5089908;28;20447;-78
2022/01/22 01:00:49;;;;;;;15.67;2.87;;;6.80;99.90;;;;;;5089704;28;20437;-78
2022/01/22 01:03:15;;;;;;;19.88;3.47;;;6.90;99.90;;;;;;5089152;28;21012;-79
2022/01/22 01:05:41;;;;;;;19.05;3.60;;;6.90;99.90;;;;;;5089678;28;20485;-78
2022/01/22 01:08:07;;;;;;;20.53;3.00;;;6.90;99.90;;;;;;5089234;28;20433;-79
2022/01/22 01:10:32;;;;;;;21.23;3.40;;;6.90;99.90;;;;;;5089374;28;21418;-78
2022/01/22 01:12:58;;;;;;;19.20;2.80;;;6.90;99.90;;;;;;5089503;28;20760;-78
2022/01/22 01:15:55;;;;;;;14.63;2.45;;;6.90;99.90;;;;;;5089165;28;20406;-78
2022/01/22 01:34:57;;;;;;;23.83;4.30;;;6.80;99.90;;;;;;5072841;28;20421;-78
2022/01/22 01:37:23;;;;;;;31.42;4.65;;;6.80;99.90;;;;;;5056444;28;20410;-79
2022/01/22 01:39:53;;;;;;;25.40;3.63;;;6.90;99.90;;;;;;5051314;28;20403;-79
2022/01/22 01:42:37;;;;;;;23.75;3.83;;;6.80;99.90;;;;;;5068734;28;20759;-78
2022/01/22 01:45:05;;;;;;;19.42;3.42;;;6.80;99.90;;;;;;5052025;28;20407;-78
2022/01/22 01:47:31;;;;;;;22.40;3.50;;;6.80;99.90;;;;;;5069853;28;20404;-79
2022/01/22 01:49:57;;;;;;;21.60;3.43;;;6.80;99.90;;;;;;5068346;28;21036;-76
2022/01/22 01:52:34;;;;;;;20.52;3.60;;;6.80;99.90;;;;;;5067961;28;20419;-76
2022/01/22 01:55:04;;;;;;;20.85;2.92;;;6.80;99.90;;;;;;5068353;28;20411;-76
2022/01/22 01:57:39;;;;;;;22.27;3.50;;;6.80;99.90;;;;;;5051485;28;20483;-76
2022/01/22 02:00:12;;;;;;;14.00;2.78;;;6.80;99.90;;;;;;5051701;28;20414;-76
2022/01/22 02:02:39;;;;;;;14.82;2.45;;;6.70;99.90;;;;;;5051414;28;20462;-76
2022/01/22 02:05:05;;;;;;;13.23;2.30;;;6.70;99.90;;;;;;5068053;28;20415;-76
2022/01/22 02:07:31;;;;;;;12.95;1.90;;;6.70;99.90;;;;;;5069042;28;20396;-76
2022/01/22 02:09:59;;;;;;;10.05;1.63;;;6.70;99.90;;;;;;5067848;28;20960;-77
2022/01/22 02:25:55;;;;;;;20.70;3.60;;;6.70;99.90;;;;;;5067551;28;20416;-77
2022/01/22 02:28:21;;;;;;;20.05;3.42;;;6.70;99.90;;;;;;5060404;28;20994;-77
2022/01/22 02:30:50;;;;;;;21.48;3.15;;;6.70;99.90;;;;;;5068552;28;20423;-78
2022/01/22 02:36:14;;;;;;;18.63;2.63;;;6.70;99.90;;;;;;5067910;28;20412;-77
2022/01/22 02:38:44;;;;;;;20.08;2.30;;;6.70;99.90;;;;;;5066659;28;20447;-77
2022/01/22 02:41:16;;;;;;;18.40;2.20;;;6.60;99.90;;;;;;5067264;28;20475;-77
2022/01/22 02:43:41;;;;;;;19.65;2.92;;;6.60;99.90;;;;;;5050236;28;20400;-77
2022/01/22 02:46:07;;;;;;;17.40;2.23;;;6.60;99.90;;;;;;5067309;28;20472;-77
2022/01/22 02:48:33;;;;;;;17.00;1.88;;;6.50;99.90;;;;;;5067393;28;20937;-77
2022/01/22 02:50:59;;;;;;;19.85;2.33;;;6.50;99.90;;;;;;5068577;28;20470;-77
2022/01/22 02:53:24;;;;;;;20.67;2.13;;;6.50;99.90;;;;;;5068399;28;20395;-77
2022/01/22 02:55:50;;;;;;;14.27;1.77;;;6.50;99.90;;;;;;5050232;28;20426;-78
2022/01/22 02:58:16;;;;;;;15.70;2.00;;;6.50;99.90;;;;;;5068830;28;20438;-77
2022/01/22 03:00:42;;;;;;;13.57;1.85;;;6.50;99.90;;;;;;5066948;28;20932;-77
2022/01/22 03:03:08;;;;;;;14.65;1.70;;;6.50;99.90;;;;;;5067189;28;20465;-77
2022/01/22 03:05:34;;;;;;;19.65;2.15;;;6.60;99.90;;;;;;5050337;28;20774;-77
2022/01/22 03:08:05;;;;;;;17.10;1.85;;;6.50;99.90;;;;;;5066794;28;20408;-77
2022/01/22 03:10:31;;;;;;;15.57;2.00;;;6.60;99.90;;;;;;5066877;28;20427;-77
2022/01/22 03:15:55;;;;;;;16.52;3.15;;;6.60;99.90;;;;;;5067088;28;20460;-77
2022/01/22 03:18:35;;;;;;;19.40;4.03;;;6.60;99.90;;;;;;5068204;28;20465;-77
2022/01/22 03:29:16;;;;;;;13.65;2.75;;;6.60;99.90;;;;;;5067812;28;20476;-77
2022/01/22 03:31:42;;;;;;;15.17;2.37;;;6.60;99.90;;;;;;5066815;28;20488;-77
2022/01/22 03:34:08;;;;;;;11.30;2.03;;;6.60;99.90;;;;;;5066550;28;20495;-77
2022/01/22 03:36:34;;;;;;;15.73;1.77;;;6.60;99.90;;;;;;5049728;28;20503;-77
2022/01/22 03:39:03;;;;;;;10.70;1.73;;;6.60;99.90;;;;;;5067915;28;20403;-77
2022/01/22 03:41:29;;;;;;;9.88;1.20;;;6.60;99.90;;;;;;5068190;28;20762;-77
2022/01/22 03:43:56;;;;;;;12.90;1.70;;;6.60;99.90;;;;;;5050059;28;20399;-77
2022/01/22 03:46:21;;;;;;;14.60;2.27;;;6.60;99.90;;;;;;5066580;28;20412;-77
2022/01/22 03:48:47;;;;;;;16.73;2.77;;;6.60;99.90;;;;;;5049411;28;20474;-77
2022/01/22 03:51:13;;;;;;;16.70;2.90;;;6.60;99.90;;;;;;5067010;28;20478;-77
2022/01/22 03:53:39;;;;;;;18.02;3.10;;;6.60;99.90;;;;;;5068431;28;20928;-77
2022/01/22 03:56:07;;;;;;;15.38;3.15;;;6.60;99.90;;;;;;5071792;28;20399;-77
2022/01/22 03:58:39;;;;;;;19.98;3.45;;;6.60;99.90;;;;;;5054042;28;20407;-77
2022/01/22 04:03:44;;;;;;;17.67;2.90;;;6.60;99.90;;;;;;5069689;28;20922;-77
2022/01/22 04:06:37;;;;;;;18.75;3.00;;;6.60;99.90;;;;;;5069566;28;20445;-77
2022/01/22 04:08:58;;;;;;;18.13;3.28;;;6.60;99.90;;;;;;5069596;28;20411;-77
2022/01/22 04:11:24;;;;;;;14.35;2.90;;;6.60;99.90;;;;;;5069375;28;20478;-77
2022/01/22 04:13:53;;;;;;;13.82;3.17;;;6.60;99.90;;;;;;5069072;28;20399;-77
2022/01/22 04:16:20;;;;;;;14.15;2.95;;;6.60;99.90;;;;;;5070602;28;20544;-77
2022/01/22 04:27:07;;;;;;;15.65;4.72;;;6.60;99.90;;;;;;5068486;28;20565;-77
2022/01/22 04:29:33;;;;;;;16.83;4.18;;;6.60;99.90;;;;;;5068712;28;20487;-77
2022/01/22 04:31:59;;;;;;;18.50;4.30;;;6.60;99.90;;;;;;5070107;28;20515;-77
2022/01/22 04:34:24;;;;;;;14.17;3.33;;;6.60;99.90;;;;;;5069982;28;20411;-77
2022/01/22 04:36:50;;;;;;;14.40;3.30;;;6.60;99.90;;;;;;5068847;28;20412;-77
2022/01/22 04:39:19;;;;;;;15.15;2.70;;;6.60;99.90;;;;;;5068861;28;20410;-77
2022/01/22 04:41:45;;;;;;;11.55;2.60;;;6.60;99.90;;;;;;5069724;28;20748;-77
2022/01/22 04:44:10;;;;;;;15.15;2.60;;;6.60;99.90;;;;;;5071070;28;20889;-78
2022/01/22 04:49:10;;;;;;;13.25;2.05;;;6.60;99.90;;;;;;5069704;28;20415;-77
2022/01/22 04:57:04;;;;;;;11.97;2.13;;;6.60;99.90;;;;;;5069738;28;20465;-77
2022/01/22 04:59:30;;;;;;;12.23;2.13;;;6.60;99.90;;;;;;5069128;28;20404;-77
2022/01/22 05:01:56;;;;;;;14.90;2.22;;;6.60;99.90;;;;;;5069351;28;20404;-77
2022/01/22 05:04:22;;;;;;;14.95;2.05;;;6.60;99.90;;;;;;5069260;28;20505;-77
2022/01/22 05:06:47;;;;;;;12.88;2.30;;;6.60;99.90;;;;;;5068831;28;20416;-77
2022/01/22 05:09:13;;;;;;;15.40;1.77;;;6.60;99.90;;;;;;5070752;28;20442;-77
2022/01/22 05:11:39;;;;;;;11.20;1.70;;;6.60;99.90;;;;;;5070177;28;20526;-77
2022/01/22 05:14:04;;;;;;;13.00;1.52;;;6.60;99.90;;;;;;5069222;28;20410;-78
2022/01/22 05:16:30;;;;;;;14.03;1.60;;;6.60;99.90;;;;;;5069128;28;20758;-78
2022/01/22 05:21:23;;;;;;;16.73;1.58;;;6.50;99.90;;;;;;5069073;28;20811;-77
2022/01/22 05:23:50;;;;;;;15.23;1.88;;;6.60;99.90;;;;;;5068799;28;20938;-78
2022/01/22 05:36:58;;;;;;;18.15;2.47;;;6.50;99.90;;;;;;5068762;28;20419;-77
2022/01/22 05:39:25;;;;;;;14.52;2.05;;;6.50;99.90;;;;;;5069158;28;20419;-77
2022/01/22 05:41:51;;;;;;;15.32;2.10;;;6.50;99.90;;;;;;5068660;28;20435;-78
2022/01/22 05:44:17;;;;;;;13.57;1.70;;;6.50;99.90;;;;;;5068456;28;20399;-77
2022/01/22 05:46:43;;;;;;;15.25;2.10;;;6.50;99.90;;;;;;5051787;28;20407;-77
2022/01/22 05:49:09;;;;;;;11.00;1.63;;;6.50;99.90;;;;;;5068327;28;21098;-78
2022/01/22 05:51:37;;;;;;;13.38;2.40;;;6.60;99.90;;;;;;5069573;28;20766;-77
2022/01/22 05:59:37;;;;;;;15.07;2.30;;;6.50;99.90;;;;;;5068252;28;20782;-78
2022/01/22 06:02:04;;;;;;;17.95;2.40;;;6.60;99.90;;;;;;5068982;28;20406;-77
2022/01/22 06:04:29;;;;;;;15.55;2.30;;;6.60;99.90;;;;;;5068277;28;20408;-77
2022/01/22 06:06:55;;;;;;;15.13;2.00;;;6.60;99.90;;;;;;5069424;28;20416;-77
2022/01/22 06:09:21;;;;;;;21.00;2.60;;;6.60;99.90;;;;;;5068180;28;20414;-78
2022/01/22 06:12:03;;;;;;;24.02;2.65;;;6.60;99.90;;;;;;5068062;28;20573;-77
2022/01/22 06:14:28;;;;;;;25.15;2.80;;;6.60;99.90;;;;;;5069001;28;20396;-78
2022/01/22 06:16:54;;;;;;;18.60;2.40;;;6.60;99.90;;;;;;5068354;28;20404;-77
2022/01/22 06:19:20;;;;;;;18.33;2.47;;;6.50;99.90;;;;;;5067608;28;20982;-77
2022/01/22 06:21:45;;;;;;;18.13;2.83;;;6.50;99.90;;;;;;5069306;28;20747;-77
2022/01/22 06:24:12;;;;;;;21.90;3.10;;;6.60;99.90;;;;;;5067852;28;20770;-78
2022/01/22 06:26:39;;;;;;;22.35;3.40;;;6.60;99.90;;;;;;5067536;28;21149;-77
2022/01/22 06:29:05;;;;;;;24.15;3.28;;;6.60;99.90;;;;;;5068845;28;20957;-78
2022/01/22 06:31:30;;;;;;;19.92;3.47;;;6.60;99.90;;;;;;5067900;28;20569;-77
2022/01/22 06:33:58;;;;;;;20.07;3.30;;;6.60;99.90;;;;;;5051064;28;20403;-78
2022/01/22 06:36:23;;;;;;;18.48;2.85;;;6.60;99.90;;;;;;5067745;28;20399;-78
2022/01/22 06:38:55;;;;;;;22.73;2.83;;;6.60;99.90;;;;;;5067833;28;20774;-78
2022/01/22 06:44:06;;;;;;;21.87;2.67;;;6.60;99.90;;;;;;5067362;28;20443;-78
2022/01/22 06:46:31;;;;;;;23.60;3.25;;;6.60;99.90;;;;;;5067530;28;20411;-77
2022/01/22 06:48:57;;;;;;;22.70;3.20;;;6.60;99.90;;;;;;5068568;28;20398;-77
2022/01/22 06:51:25;;;;;;;21.88;3.40;;;6.60;99.90;;;;;;5050457;28;20762;-77
2022/01/22 06:53:52;;;;;;;24.90;3.60;;;6.60;99.90;;;;;;5050678;28;20423;-77
2022/01/22 06:56:20;;;;;;;22.98;3.40;;;6.60;99.90;;;;;;5067636;28;20841;-78
2022/01/22 06:58:47;;;;;;;19.13;3.10;;;6.60;99.90;;;;;;5067204;28;20415;-78
2022/01/22 07:01:13;;;;;;;14.50;3.10;;;6.60;99.90;;;;;;5067408;28;20495;-77
2022/01/22 07:03:38;;;;;;;12.47;2.50;;;6.50;99.90;;;;;;5050774;28;20503;-77
2022/01/22 07:06:04;;;;;;;9.70;2.03;;;6.60;99.90;;;;;;5066998;28;20463;-77
2022/01/22 07:08:30;;;;;;;8.63;1.88;;;6.60;99.90;;;;;;5066997;28;20950;-77
2022/01/22 07:10:55;;;;;;;7.20;1.63;;;6.50;99.90;;;;;;5067145;28;20428;-77
2022/01/22 07:13:21;;;;;;;11.75;1.77;;;6.60;99.90;;;;;;5068371;28;20457;-77
2022/01/22 07:15:47;;;;;;;11.93;1.80;;;6.60;99.90;;;;;;5066954;28;20472;-77
2022/01/22 07:18:13;;;;;;;9.47;1.90;;;6.60;99.90;;;;;;5066815;28;20965;-77
2022/01/22 07:20:41;;;;;;;10.55;1.65;;;6.50;99.90;;;;;;5068406;28;20473;-77
2022/01/22 07:23:43;;;;;;;11.15;1.80;;;6.50;99.90;;;;;;5066520;28;20457;-77
2022/01/22 07:26:07;;;;;;;12.02;1.90;;;6.50;99.90;;;;;;5067331;28;20426;-77
2022/01/22 07:28:33;;;;;;;11.15;2.00;;;6.40;99.90;;;;;;5066675;28;20415;-77
2022/01/22 07:31:03;;;;;;;9.98;2.00;;;6.40;99.90;;;;;;5066598;28;20427;-77
2022/01/22 07:33:29;;;;;;;11.43;1.92;;;6.50;99.90;;;;;;5066760;28;20417;-77
2022/01/22 07:35:55;;;;;;;13.27;2.00;;;6.40;99.90;;;;;;5049692;28;21319;-78
2022/01/22 07:38:21;;;;;;;11.60;1.70;;;6.40;99.90;;;;;;5068084;28;20404;-78
2022/01/22 07:40:47;;;;;;;11.40;2.13;;;6.40;99.90;;;;;;5066433;28;20447;-78
2022/01/22 07:43:14;;;;;;;10.75;2.20;;;6.40;99.90;;;;;;5050236;28;20496;-78
2022/01/22 07:45:40;;;;;;;11.73;2.00;;;6.40;99.90;;;;;;5067195;28;20480;-78
2022/01/22 07:48:06;;;;;;;12.52;1.92;;;6.40;99.90;;;;;;5066023;28;20423;-78
2022/01/22 07:50:32;;;;;;;10.13;2.03;;;6.40;99.90;;;;;;5067751;28;20766;-78
2022/01/22 07:52:57;;;;;;;13.13;2.20;;;6.40;99.90;;;;;;5066270;28;20460;-78
2022/01/22 07:55:23;;;;;;;12.95;2.40;;;6.40;99.90;;;;;;5049793;28;20403;-78
2022/01/22 07:57:49;;;;;;;11.52;2.38;;;6.40;99.90;;;;;;5066070;28;20488;-78
2022/01/22 08:00:16;;;;;;;14.63;2.35;;;6.40;99.90;;;;;;5065366;28;20399;-78
2022/01/22 08:02:43;;;;;;;10.02;1.80;;;6.40;99.90;;;;;;5065599;28;20461;-78
2022/01/22 08:05:09;;;;;;;10.55;2.30;;;6.40;99.90;;;;;;5065629;28;20505;-78
2022/01/22 08:07:35;;;;;;;9.53;2.30;;;6.40;99.90;;;;;;5065508;28;20407;-78
2022/01/22 08:10:02;;;;;;;9.27;2.03;;;6.40;99.90;;;;;;5065846;28;20411;-78
2022/01/22 08:12:29;;;;;;;8.93;2.25;;;6.40;99.90;;;;;;5066666;28;20467;-78
2022/01/22 08:14:55;;;;;;;10.43;2.22;;;6.40;99.90;;;;;;5065300;28;20403;-78
2022/01/22 08:17:21;;;;;;;12.60;1.90;;;6.40;99.90;;;;;;5049462;28;20465;-77
2022/01/22 08:19:46;;;;;;;9.98;1.58;;;6.40;99.90;;;;;;5066638;28;20796;-77
2022/01/22 08:22:12;;;;;;;8.48;1.60;;;6.40;99.90;;;;;;5049892;28;20922;-77
2022/01/22 08:24:38;;;;;;;10.83;1.50;;;6.40;99.90;;;;;;5049178;28;20948;-78
2022/01/22 08:29:42;;;;;;;9.25;1.52;;;6.40;99.90;;;;;;5066351;28;20411;-77
2022/01/22 08:37:27;;;;;;;14.13;2.20;;;6.40;99.90;;;;;;5079066;28;20425;-78
2022/01/22 08:39:53;;;;;;;10.68;1.90;;;6.40;99.90;;;;;;5083337;28;20407;-78
2022/01/22 08:42:20;;;;;;;10.10;1.80;;;6.40;99.90;;;;;;5070025;28;20431;-78
2022/01/22 08:44:47;;;;;;;14.77;1.83;;;6.50;99.90;;;;;;5052695;28;20493;-78
2022/01/22 08:47:13;;;;;;;12.05;1.67;;;6.40;99.90;;;;;;5069039;28;20412;-78
2022/01/22 08:49:39;;;;;;;15.23;1.90;;;6.40;99.90;;;;;;5069518;28;20399;-75
2022/01/22 08:52:11;;;;;;;14.40;1.85;;;6.50;99.90;;;;;;5070589;28;20431;-75
2022/01/22 08:54:37;;;;;;;15.38;1.80;;;6.40;99.90;;;;;;5069854;28;20494;-76
2022/01/22 08:57:03;;;;;;;15.02;1.77;;;6.40;99.90;;;;;;5069056;28;20414;-76
2022/01/22 08:59:29;;;;;;;15.23;1.80;;;6.50;99.90;;;;;;5068396;28;20406;-76
2022/01/22 09:01:54;;;;;;;16.17;1.85;;;6.50;99.90;;;;;;5068704;28;20399;-77
2022/01/22 09:04:20;;;;;;;13.07;2.03;;;6.50;99.90;;;;;;5068614;28;20945;-76
2022/01/22 09:06:46;;;;;;;12.00;1.97;;;6.50;99.90;;;;;;5051642;28;20403;-77
2022/01/22 09:09:12;;;;;;;15.32;1.67;;;6.50;99.90;;;;;;5067656;28;20439;-76
2022/01/22 09:11:40;;;;;;;16.00;1.85;;;6.60;99.90;;;;;;5051707;28;20884;-76
2022/01/22 09:14:08;;;;;;;14.27;1.80;;;6.60;99.90;;;;;;5068637;28;20411;-76
2022/01/22 09:16:35;;;;;;;16.48;2.08;;;6.60;99.90;;;;;;5052110;28;20407;-77
2022/01/22 09:19:05;;;;;;;14.20;2.35;;;6.70;99.90;;;;;;5051705;28;20396;-76
2022/01/22 09:21:32;;;;;;;16.50;2.20;;;6.70;99.90;;;;;;5068688;28;21061;-77
2022/01/22 09:23:58;;;;;;;16.15;2.03;;;6.70;99.90;;;;;;5068814;28;20944;-76
2022/01/22 09:26:23;;;;;;;16.70;1.95;;;6.70;99.90;;;;;;5068841;28;20424;-77
2022/01/22 09:28:50;;;;;;;12.43;1.80;;;6.70;99.90;;;;;;5068474;28;20403;-77
2022/01/22 09:31:16;;;;;;;9.48;1.60;;;6.70;99.90;;;;;;5068440;28;20538;-77
2022/01/22 09:33:43;;;;;;;16.15;1.60;;;6.80;99.90;;;;;;5068330;28;20581;-77
2022/01/22 09:36:09;;;;;;;9.87;0.90;;;6.80;99.90;;;;;;5068541;28;20420;-77
2022/01/22 09:38:35;;;;;;;5.93;0.90;;;6.80;99.90;;;;;;5068726;28;20487;-77
2022/01/22 09:41:01;;;;;;;8.18;0.95;;;6.80;99.90;;;;;;5068097;28;20416;-77
2022/01/22 09:43:26;;;;;;;6.10;0.60;;;6.80;99.90;;;;;;5068585;28;20910;-77
2022/01/22 09:45:52;;;;;;;8.40;0.70;;;6.80;99.90;;;;;;5068094;28;20403;-77
2022/01/22 09:48:17;;;;;;;6.35;0.73;;;6.90;99.90;;;;;;5051544;28;20407;-77
2022/01/22 09:50:43;;;;;;;7.03;0.80;;;6.90;99.90;;;;;;5051588;28;20431;-77
2022/01/22 09:53:09;;;;;;;5.30;0.60;;;6.90;99.90;;;;;;5051885;28;20400;-77
2022/01/22 09:55:34;;;;;;;6.40;0.88;;;7.00;99.90;;;;;;5068473;28;20789;-77
2022/01/22 09:58:00;;;;;;;8.00;0.90;;;7.10;99.90;;;;;;5051699;28;20396;-76
2022/01/22 10:00:27;;;;;;;6.57;0.82;;;7.10;99.90;;;;;;5051646;28;20408;-76
2022/01/22 10:02:57;;;;;;;7.83;0.80;;;7.20;99.90;;;;;;5067977;28;20467;-76
2022/01/22 10:05:28;;;;;;;7.45;0.95;;;7.20;99.90;;;;;;5051100;28;20416;-76
2022/01/22 10:07:54;;;;;;;7.32;0.80;;;7.20;99.90;;;;;;5068025;28;20759;-76
2022/01/22 10:10:21;;;;;;;5.05;0.50;;;7.20;99.90;;;;;;5067870;28;20399;-76
2022/01/22 10:12:50;;;;;;;4.30;0.50;;;7.10;99.90;;;;;;5067579;28;20438;-76
2022/01/22 10:15:18;;;;;;;4.67;0.60;;;7.10;99.90;;;;;;5051023;28;20465;-76
2022/01/22 10:17:46;;;;;;;7.03;0.50;;;7.10;99.90;;;;;;5050658;28;20404;-77
2022/01/22 10:20:27;;;;;;;2.92;0.40;;;7.00;99.90;;;;;;5067345;28;20441;-76
2022/01/22 10:22:59;;;;;;;4.68;0.38;;;7.00;99.90;;;;;;5067481;28;20434;-77
2022/01/22 10:25:32;;;;;;;3.60;0.30;;;7.00;99.90;;;;;;5050628;28;20416;-77
2022/01/22 10:28:15;;;;;;;4.03;0.63;;;7.00;99.90;;;;;;5067907;28;20727;-76
2022/01/22 10:30:44;;;;;;;6.10;0.60;;;7.00;99.90;;;;;;5067522;28;20411;-76
2022/01/22 10:33:30;;;;;;;4.13;0.35;;;7.00;99.90;;;;;;5050227;28;20404;-77
2022/01/22 10:36:19;;;;;;;4.18;0.40;;;7.10;99.90;;;;;;5050699;28;20436;-77
2022/01/22 10:38:49;;;;;;;2.28;0.30;;;7.20;99.90;;;;;;5050691;28;20408;-76
2022/01/22 10:41:18;;;;;;;3.28;0.30;;;7.30;99.90;;;;;;5050734;28;20408;-77
2022/01/22 10:43:55;;;;;;;3.72;0.50;;;7.30;99.90;;;;;;5067770;28;20404;-77
2022/01/22 10:46:41;;;;;;;3.75;0.35;;;7.50;99.90;;;;;;5066807;28;20418;-76
2022/01/22 10:49:12;;;;;;;4.20;0.30;;;7.60;99.90;;;;;;5068229;28;20431;-77
2022/01/22 10:51:53;;;;;;;4.95;0.50;;;7.70;99.90;;;;;;5050554;28;20527;-77
2022/01/22 10:54:24;;;;;;;5.75;0.52;;;7.70;99.90;;;;;;5067075;28;20722;-76
2022/01/22 10:56:51;;;;;;;4.82;0.60;;;7.70;99.90;;;;;;5067712;28;20534;-77
2022/01/22 10:59:19;;;;;;;6.57;0.68;;;7.70;99.90;;;;;;5066047;28;20414;-77
2022/01/22 11:01:55;;;;;;;5.50;0.60;;;7.80;99.90;;;;;;5068400;28;20403;-77
2022/01/22 11:04:29;;;;;;;7.22;0.90;;;7.90;99.90;;;;;;5066670;28;20424;-77
2022/01/22 11:07:03;;;;;;;8.30;0.70;;;7.90;99.90;;;;;;5066793;28;20408;-77
2022/01/22 11:09:30;;;;;;;9.05;0.95;;;7.90;99.90;;;;;;5067057;28;20487;-79
2022/01/22 11:11:57;;;;;;;6.30;1.00;;;7.90;99.90;;;;;;5066319;28;20435;-77
2022/01/22 11:14:23;;;;;;;5.82;0.73;;;7.90;99.90;;;;;;5067789;28;20944;-77
2022/01/22 11:16:51;;;;;;;6.07;1.00;;;7.90;99.90;;;;;;5049689;28;20442;-77
2022/01/22 11:19:22;;;;;;;6.50;0.95;;;7.90;99.90;;;;;;5066832;28;20475;-76
2022/01/22 11:21:50;;;;;;;5.67;0.80;;;7.90;99.90;;;;;;5049726;28;20411;-76
2022/01/22 11:24:21;;;;;;;7.57;0.90;;;7.90;99.90;;;;;;5049900;28;20411;-77
2022/01/22 11:26:52;;;;;;;5.60;0.80;;;7.90;99.90;;;;;;5049828;28;20447;-77
2022/01/22 11:29:22;;;;;;;6.60;0.88;;;7.80;99.90;;;;;;5049442;28;20452;-77
2022/01/22 11:31:49;;;;;;;5.57;0.70;;;7.80;99.90;;;;;;5066178;28;20432;-77
2022/01/22 11:34:19;;;;;;;6.32;0.95;;;7.80;99.90;;;;;;5066420;28;20404;-77
2022/01/22 11:36:57;;;;;;;9.13;0.90;;;7.80;99.90;;;;;;5066524;28;20403;-77
2022/01/22 11:39:25;;;;;;;7.70;1.10;;;7.70;99.90;;;;;;5066634;28;20427;-77
2022/01/22 11:41:57;;;;;;;4.22;0.82;;;7.80;99.90;;;;;;5067483;28;20829;-78
2022/01/22 11:45:01;;;;;;;7.88;1.20;;;7.70;99.90;;;;;;5065980;28;20782;-77
2022/01/22 11:47:26;;;;;;;6.43;1.05;;;7.70;99.90;;;;;;5049828;28;20499;-77
2022/01/22 11:50:22;;;;;;;8.77;0.97;;;7.70;99.90;;;;;;5066439;28;20491;-77
2022/01/22 11:52:47;;;;;;;8.85;0.98;;;7.60;99.90;;;;;;5050005;28;20441;-77
2022/01/22 11:55:16;;;;;;;9.93;1.33;;;7.60;99.90;;;;;;5066337;28;20488;-77
2022/01/22 11:57:43;;;;;;;8.30;1.27;;;7.60;99.90;;;;;;5067327;28;20406;-77
2022/01/22 12:00:24;;;;;;;6.30;1.10;;;7.60;99.90;;;;;;5066061;28;20456;-77
2022/01/22 12:03:08;;;;;;;8.32;1.10;;;7.50;99.90;;;;;;5066027;28;20415;-77
2022/01/22 12:05:54;;;;;;;9.35;1.33;;;7.50;99.90;;;;;;5065975;28;20453;-77
2022/01/22 12:08:21;;;;;;;11.30;1.30;;;7.50;99.90;;;;;;5049287;28;20403;-77
2022/01/22 12:16:39;;;;;;;8.57;1.20;;;7.50;99.90;;;;;;5068906;28;20577;-77
2022/01/22 12:19:10;;;;;;;7.82;1.27;;;7.50;99.90;;;;;;5070558;28;20415;-78
2022/01/22 12:21:37;;;;;;;7.95;1.35;;;7.50;99.90;;;;;;5069655;28;20411;-77
2022/01/22 12:24:12;;;;;;;10.23;1.75;;;7.40;99.90;;;;;;5069606;28;20406;-77
2022/01/22 12:26:44;;;;;;;7.53;1.48;;;7.40;99.90;;;;;;5069365;28;20929;-76
2022/01/22 12:29:36;;;;;;;10.00;1.73;;;7.40;99.90;;;;;;5070190;28;20778;-77
2022/01/22 12:32:13;;;;;;;7.50;1.50;;;7.40;99.90;;;;;;5069305;28;20792;-76
2022/01/22 12:34:55;;;;;;;9.88;2.28;;;7.30;99.90;;;;;;5053447;28;20418;-76
2022/01/22 12:37:22;;;;;;;14.20;2.22;;;7.30;99.90;;;;;;5069863;28;20831;-77
2022/01/22 12:39:52;;;;;;;9.30;1.90;;;7.30;99.90;;;;;;5052980;28;20450;-76
2022/01/22 12:42:27;;;;;;;10.95;2.45;;;7.30;99.90;;;;;;5068875;28;20450;-76
2022/01/22 12:45:02;;;;;;;11.02;1.92;;;7.30;99.90;;;;;;5069332;28;21018;-77
2022/01/22 12:47:28;;;;;;;10.30;1.60;;;7.30;99.90;;;;;;5069181;28;20502;-76
2022/01/22 12:50:07;;;;;;;13.07;2.88;;;7.20;99.90;;;;;;5069283;28;20878;-76
2022/01/22 12:52:34;;;;;;;11.30;2.30;;;7.20;99.90;;;;;;5070436;28;20427;-77
2022/01/22 12:55:13;;;;;;;11.70;2.40;;;7.30;99.90;;;;;;5069064;28;20412;-76
2022/01/22 12:57:41;;;;;;;14.52;2.78;;;7.30;99.90;;;;;;5069647;28;20453;-76
2022/01/22 13:00:12;;;;;;;9.95;2.75;;;7.30;99.90;;;;;;5069554;28;20782;-76
2022/01/22 13:02:45;;;;;;;14.30;2.92;;;7.30;99.90;;;;;;5052477;28;20913;-77
2022/01/22 13:05:14;;;;;;;14.07;2.60;;;7.30;99.90;;;;;;5052345;28;20458;-76
2022/01/22 13:07:42;;;;;;;15.50;3.28;;;7.30;99.90;;;;;;5052849;28;20434;-76
2022/01/22 13:10:09;;;;;;;13.98;3.10;;;7.30;99.90;;;;;;5051948;28;20404;-76
2022/01/22 13:12:37;;;;;;;15.13;3.00;;;7.30;99.90;;;;;;5052484;28;20901;-76
2022/01/22 13:15:04;;;;;;;10.43;2.95;;;7.30;99.90;;;;;;5052384;28;20497;-76
2022/01/22 13:17:32;;;;;;;12.23;2.97;;;7.30;99.90;;;;;;5068942;28;20974;-76
2022/01/22 13:19:58;;;;;;;17.48;3.33;;;7.30;99.90;;;;;;5068127;28;20492;-77
2022/01/22 13:22:38;;;;;;;16.85;3.70;;;7.30;99.90;;;;;;5068430;28;20404;-77
2022/01/22 13:25:14;;;;;;;20.33;4.40;;;7.40;99.90;;;;;;5058887;28;20427;-78
2022/01/22 13:27:42;;;;;;;18.90;4.90;;;7.40;99.90;;;;;;5051086;28;20419;-77
2022/01/22 13:30:11;;;;;;;16.42;4.93;;;7.40;99.90;;;;;;5066247;28;20452;-78
2022/01/22 13:32:58;;;;;;;16.20;4.43;;;7.40;99.90;;;;;;5041811;28;20431;-78
2022/01/22 13:35:34;;;;;;;15.38;4.88;;;7.40;99.90;;;;;;5047716;28;20423;-78
2022/01/22 13:38:39;;;;;;;18.60;4.88;;;7.40;99.90;;;;;;5059495;28;20413;-78
2022/01/22 13:49:33;;;;;;;12.50;4.23;;;7.30;99.90;;;;;;5068147;28;20415;-78
2022/01/22 13:52:06;;;;;;;14.70;3.80;;;7.30;99.90;;;;;;5044298;28;20433;-78
2022/01/22 13:54:36;;;;;;;14.32;3.72;;;7.30;99.90;;;;;;5041651;28;20503;-77
2022/01/22 13:57:09;;;;;;;14.43;3.95;;;7.30;99.90;;;;;;5066034;28;20462;-77
2022/01/22 13:59:38;;;;;;;12.63;3.85;;;7.30;99.90;;;;;;5067210;28;20396;-77
2022/01/22 14:02:16;;;;;;;14.17;4.80;;;7.30;99.90;;;;;;5047270;28;20755;-77
2022/01/22 14:04:44;;;;;;;15.95;5.25;;;7.30;99.90;;;;;;5067631;28;20418;-77
2022/01/22 14:07:35;;;;;;;17.17;4.38;;;7.30;99.90;;;;;;5068010;28;20424;-76
2022/01/22 14:10:14;;;;;;;15.37;4.50;;;7.30;99.90;;;;;;5067427;28;20574;-77
2022/01/22 14:12:50;;;;;;;19.75;4.38;;;7.30;99.90;;;;;;5067115;28;20436;-77
2022/01/22 14:15:29;;;;;;;16.90;4.22;;;7.30;99.90;;;;;;5050237;28;20419;-76
2022/01/22 14:21:26;;;;;;;17.02;3.97;;;7.30;99.90;;;;;;5062934;28;20829;-77
2022/01/22 14:23:52;;;;;;;14.32;3.83;;;7.30;99.90;;;;;;5066958;28;20411;-77
2022/01/22 14:26:25;;;;;;;14.53;4.20;;;7.30;99.90;;;;;;5066457;28;20454;-77
2022/01/22 14:28:55;;;;;;;13.52;3.88;;;7.30;99.90;;;;;;5067190;28;20438;-77
2022/01/22 14:31:33;;;;;;;18.95;3.97;;;7.30;99.90;;;;;;5066663;28;20818;-77
2022/01/22 14:34:00;;;;;;;12.82;3.63;;;7.30;99.90;;;;;;5065727;28;20498;-77
2022/01/22 14:36:30;;;;;;;12.38;3.00;;;7.30;99.90;;;;;;5049654;28;20510;-77
2022/01/22 14:44:55;;;;;;;11.43;2.88;;;7.30;99.90;;;;;;5063648;28;20469;-77
2022/01/22 14:47:22;;;;;;;14.53;3.00;;;7.30;99.90;;;;;;5049032;28;20809;-76
2022/01/22 14:49:51;;;;;;;14.55;3.08;;;7.30;99.90;;;;;;5065154;28;20479;-76
2022/01/22 14:52:22;;;;;;;16.08;3.30;;;7.20;99.90;;;;;;5065389;28;20481;-76
2022/01/22 14:54:50;;;;;;;12.63;3.53;;;7.20;99.90;;;;;;5048873;28;20454;-74
2022/01/22 14:57:20;;;;;;;14.43;3.55;;;7.20;99.90;;;;;;5067404;28;20415;-74